Time;durP1;ratioP1;P1;durP2;ratioP2;P2;SDS_P1;SDS_P2;PMS_P1;PMS_P2;Temp;Humidity;BMP_temperature;BMP_pressure;BME280_temperature;BME280_humidity;BME280_pressure;Samples;Min_cycle;Max_cycle;Signal;HPM_P1;HPM_P2
2022/03/14 00:01:28;;;;;;;52.50;23.50;;;;;;;-1.18;67.20;99505.13;105837;1281;24392;-77
2022/03/14 00:03:57;;;;;;;53.00;26.40;;;;;;;-1.22;67.37;99503.05;105867;1281;137954;-77
2022/03/14 00:06:23;;;;;;;58.00;25.80;;;;;;;-1.25;67.70;99498.36;105843;1281;24322;-77
2022/03/14 00:08:54;;;;;;;61.50;27.80;;;;;;;-1.29;67.85;99496.35;106014;1280;137890;-77
2022/03/14 00:11:22;;;;;;;57.00;28.20;;;;;;;-1.31;68.07;99496.41;105746;1281;22562;-78
2022/03/14 00:13:50;;;;;;;54.10;25.50;;;;;;;-1.32;68.20;99496.11;105836;1281;22554;-78
2022/03/14 00:16:25;;;;;;;59.90;27.00;;;;;;;-1.31;68.23;99501.00;105840;1281;138241;-78
2022/03/14 00:18:58;;;;;;;51.70;26.20;;;;;;;-1.31;68.17;99499.59;105889;1281;25257;-78
2022/03/14 00:21:26;;;;;;;56.40;26.60;;;;;;;-1.31;68.31;99506.92;105884;1280;138205;-78
2022/03/14 00:23:55;;;;;;;56.10;25.90;;;;;;;-1.34;68.43;99504.29;105924;1284;22630;-79
2022/03/14 00:26:22;;;;;;;54.90;26.40;;;;;;;-1.36;68.34;99509.46;106142;1281;22565;-79
2022/03/14 00:28:51;;;;;;;58.80;28.50;;;;;;;-1.38;68.24;99519.25;105895;1281;138371;-79
2022/03/14 00:31:19;;;;;;;47.60;23.10;;;;;;;-1.39;68.16;99518.46;105970;1281;24239;-79
2022/03/14 00:33:46;;;;;;;53.70;25.60;;;;;;;-1.41;68.10;99519.92;105905;1284;138054;-79
2022/03/14 00:36:16;;;;;;;60.40;26.70;;;;;;;-1.45;67.99;99519.56;105773;1281;22556;-79
2022/03/14 00:38:43;;;;;;;57.70;27.10;;;;;;;-1.45;67.92;99524.27;106004;1281;22585;-79
2022/03/14 00:41:12;;;;;;;53.70;26.50;;;;;;;-1.48;67.85;99523.80;105900;1281;137841;-79
2022/03/14 00:43:39;;;;;;;47.70;21.60;;;;;;;-1.52;68.08;99525.00;106270;1280;25385;-79
2022/03/14 00:46:05;;;;;;;55.60;23.70;;;;;;;-1.55;68.15;99524.27;105954;1280;139990;-79
2022/03/14 00:48:32;;;;;;;56.60;25.80;;;;;;;-1.60;68.16;99519.04;105725;1284;23416;-79
2022/03/14 00:51:03;;;;;;;50.40;23.50;;;;;;;-1.64;68.53;99522.75;105929;1281;138271;-79
2022/03/14 00:53:31;;;;;;;63.60;29.20;;;;;;;-1.67;68.75;99525.16;106187;1280;22712;-79
2022/03/14 00:56:02;;;;;;;62.10;30.60;;;;;;;-1.69;68.87;99528.76;106166;1281;23432;-78
2022/03/14 00:58:32;;;;;;;58.00;27.30;;;;;;;-1.69;68.77;99528.54;105772;1281;138606;-78
2022/03/14 01:00:59;;;;;;;56.80;27.70;;;;;;;-1.67;68.91;99530.88;105631;1284;23955;-78
2022/03/14 01:03:29;;;;;;;56.70;27.50;;;;;;;-1.67;68.93;99528.36;105513;1284;138368;-78
2022/03/14 01:05:55;;;;;;;55.40;26.60;;;;;;;-1.68;68.88;99529.20;105869;1281;22550;-78
2022/03/14 01:08:22;;;;;;;66.20;28.50;;;;;;;-1.70;69.23;99529.70;105889;1280;25339;-78
2022/03/14 01:11:03;;;;;;;63.00;28.60;;;;;;;-1.76;69.20;99531.45;105550;1281;137910;-78
2022/03/14 01:13:30;;;;;;;59.60;26.70;;;;;;;-1.79;69.22;99533.76;105800;1280;22566;-78
2022/03/14 01:15:59;;;;;;;59.10;25.20;;;;;;;-1.83;69.24;99532.11;105607;1281;137869;-77
2022/03/14 01:18:25;;;;;;;59.30;27.70;;;;;;;-1.87;69.59;99527.13;105881;1280;22589;-77
2022/03/14 01:20:52;;;;;;;52.10;24.40;;;;;;;-1.90;69.69;99531.54;105582;1281;140109;-80
2022/03/14 01:23:18;;;;;;;57.50;27.70;;;;;;;-1.94;69.54;99529.59;105785;1280;22792;-80
2022/03/14 01:25:48;;;;;;;61.00;29.50;;;;;;;-1.98;69.77;99533.79;105452;1281;25526;-80
2022/03/14 01:28:15;;;;;;;55.90;26.70;;;;;;;-1.99;69.93;99536.55;105587;1280;138778;-78
2022/03/14 01:30:43;;;;;;;54.50;27.30;;;;;;;-1.99;69.77;99534.97;105940;1280;22667;-78
2022/03/14 01:33:12;;;;;;;54.70;27.60;;;;;;;-1.97;69.99;99535.84;105873;1281;138778;-78
2022/03/14 01:35:39;;;;;;;52.90;26.80;;;;;;;-1.96;70.15;99536.45;105833;1282;25490;-78
2022/03/14 01:38:05;;;;;;;56.40;27.60;;;;;;;-1.97;70.09;99538.72;105628;1284;25265;-77
2022/03/14 01:40:32;;;;;;;57.20;27.10;;;;;;;-2.00;70.26;99542.73;105730;1280;137914;-77
2022/03/14 01:42:58;;;;;;;62.00;26.40;;;;;;;-2.03;70.43;99546.23;106050;1280;24228;-77
2022/03/14 01:45:25;;;;;;;58.20;26.80;;;;;;;-2.06;70.44;99553.23;105934;1283;140540;-79
2022/03/14 01:47:52;;;;;;;55.00;26.70;;;;;;;-2.11;70.68;99554.00;106045;1280;24212;-77
2022/03/14 01:50:22;;;;;;;56.40;26.30;;;;;;;-2.13;70.48;99554.38;106024;1280;22555;-78
2022/03/14 01:53:04;;;;;;;54.00;26.10;;;;;;;-2.15;70.35;99549.92;105854;1280;138117;-78
2022/03/14 01:55:33;;;;;;;58.90;26.90;;;;;;;-2.16;70.66;99550.41;105943;1280;25342;-78
2022/03/14 01:57:59;;;;;;;52.40;26.50;;;;;;;-2.18;70.92;99549.84;105677;1280;138142;-77
2022/03/14 02:00:25;;;;;;;47.60;26.30;;;;;;;-2.20;70.82;99557.45;105856;1280;22581;-77
2022/03/14 02:02:51;;;;;;;50.70;26.90;;;;;;;-2.20;70.97;99555.40;105770;1281;138709;-76
2022/03/14 02:05:19;;;;;;;55.60;26.90;;;;;;;-2.19;70.97;99555.42;105718;1281;25427;-76
2022/03/14 02:07:46;;;;;;;54.60;26.70;;;;;;;-2.17;71.17;99560.41;105854;1280;24333;-77
2022/03/14 02:10:12;;;;;;;54.10;26.70;;;;;;;-2.18;70.97;99559.77;105704;1280;141418;-77
2022/03/14 02:12:44;;;;;;;52.80;26.90;;;;;;;-2.20;70.95;99559.48;105940;1280;25353;-75
2022/03/14 02:15:10;;;;;;;56.20;29.50;;;;;;;-2.25;71.09;99565.55;105769;1281;137961;-75
2022/03/14 02:17:37;;;;;;;60.20;28.60;;;;;;;-2.29;71.11;99566.23;106025;1280;22550;-75
2022/03/14 02:20:04;;;;;;;58.80;28.30;;;;;;;-2.31;71.26;99567.67;105887;1281;22566;-74
2022/03/14 02:22:31;;;;;;;58.90;28.50;;;;;;;-2.34;71.49;99567.43;105795;1280;138221;-75
2022/03/14 02:24:57;;;;;;;51.60;25.50;;;;;;;-2.33;71.67;99567.86;105796;1280;23067;-76
2022/03/14 02:27:23;;;;;;;57.40;27.90;;;;;;;-2.32;71.73;99569.71;105811;1280;138792;-75
2022/03/14 02:29:50;;;;;;;62.60;27.20;;;;;;;-2.29;71.66;99571.07;105980;1281;22586;-75
2022/03/14 02:32:16;;;;;;;59.90;26.30;;;;;;;-2.28;71.64;99572.02;105848;1281;22573;-75
2022/03/14 02:34:43;;;;;;;55.60;26.30;;;;;;;-2.27;71.56;99571.80;105698;1280;137807;-75
2022/03/14 02:37:10;;;;;;;55.90;25.70;;;;;;;-2.28;71.40;99568.85;105752;1280;22681;-76
2022/03/14 02:39:37;;;;;;;56.90;25.90;;;;;;;-2.31;71.62;99574.23;105915;1280;138782;-76
2022/03/14 02:42:06;;;;;;;50.40;23.70;;;;;;;-2.35;71.51;99576.39;106036;1280;24440;-75
2022/03/14 02:44:34;;;;;;;57.50;27.00;;;;;;;-2.41;71.89;99573.76;105801;1281;22548;-75
2022/03/14 02:47:04;;;;;;;56.00;26.00;;;;;;;-2.45;71.92;99573.95;106274;1280;138050;-75
2022/03/14 02:49:31;;;;;;;55.80;26.90;;;;;;;-2.49;72.00;99581.17;105851;1280;22694;-75
2022/03/14 02:51:58;;;;;;;55.00;26.60;;;;;;;-2.51;71.91;99582.60;106284;1280;138390;-75
2022/03/14 02:54:25;;;;;;;50.60;25.70;;;;;;;-2.50;72.15;99580.76;106061;1280;24380;-75
2022/03/14 02:56:52;;;;;;;50.90;26.20;;;;;;;-2.48;72.52;99581.50;105734;1280;138191;-75
2022/03/14 02:59:19;;;;;;;56.60;26.30;;;;;;;-2.45;72.22;99583.20;106047;1280;24326;-75
2022/03/14 03:01:46;;;;;;;58.40;26.10;;;;;;;-2.47;72.27;99584.20;106009;1280;23296;-75
2022/03/14 03:04:12;;;;;;;51.30;26.20;;;;;;;-2.51;72.13;99585.45;105916;1280;137732;-74
2022/03/14 03:06:39;;;;;;;56.60;27.70;;;;;;;-2.56;72.52;99587.64;105914;1281;24266;-74
2022/03/14 03:09:05;;;;;;;58.10;27.30;;;;;;;-2.59;72.40;99588.46;105751;1281;137921;-74
2022/03/14 03:11:32;;;;;;;69.90;27.30;;;;;;;-2.62;72.69;99586.92;105759;1283;23945;-74
2022/03/14 03:14:00;;;;;;;63.70;27.70;;;;;;;-2.66;72.64;99589.80;105724;1283;23945;-74
2022/03/14 03:16:27;;;;;;;63.10;28.60;;;;;;;-2.72;72.78;99592.41;105852;1283;138050;-74
2022/03/14 03:18:54;;;;;;;56.00;28.10;;;;;;;-2.78;72.81;99591.31;106039;1281;22576;-74
2022/03/14 03:21:21;;;;;;;55.50;26.50;;;;;;;-2.81;72.94;99596.93;105762;1283;140880;-74
2022/03/14 03:23:47;;;;;;;58.00;27.00;;;;;;;-2.79;73.43;99599.23;105683;1281;22574;-74
2022/03/14 03:26:15;;;;;;;56.60;29.30;;;;;;;-2.76;73.71;99602.85;105733;1281;24222;-74
2022/03/14 03:28:43;;;;;;;54.80;27.70;;;;;;;-2.75;73.42;99604.92;105671;1281;137891;-74
2022/03/14 03:31:13;;;;;;;60.20;28.10;;;;;;;-2.78;73.48;99605.00;105916;1280;25334;-74
2022/03/14 03:33:40;;;;;;;58.70;27.50;;;;;;;-2.81;73.39;99605.79;105613;1281;137879;-74
2022/03/14 03:36:07;;;;;;;57.10;28.60;;;;;;;-2.84;73.71;99606.61;105612;1283;24751;-74
2022/03/14 03:38:35;;;;;;;55.20;26.50;;;;;;;-2.90;73.29;99605.70;105652;1281;22617;-74
2022/03/14 03:41:03;;;;;;;63.10;29.30;;;;;;;-2.96;73.79;99612.96;105402;1281;137893;-75
2022/03/14 03:43:30;;;;;;;60.60;27.80;;;;;;;-2.98;74.04;99614.70;105196;1283;22572;-74
2022/03/14 03:45:56;;;;;;;53.50;26.90;;;;;;;-2.96;74.40;99618.46;105007;1283;142003;-74
2022/03/14 03:48:23;;;;;;;52.90;26.40;;;;;;;-2.95;74.20;99619.09;105511;1281;22551;-75
2022/03/14 03:50:49;;;;;;;60.50;27.20;;;;;;;-2.97;73.87;99621.74;105187;1280;23003;-73
2022/03/14 03:53:18;;;;;;;59.50;28.10;;;;;;;-2.99;74.40;99624.54;105750;1281;137565;-75
2022/03/14 03:55:44;;;;;;;58.70;28.90;;;;;;;-2.99;74.07;99625.27;105753;1281;22577;-75
2022/03/14 03:58:11;;;;;;;57.80;29.80;;;;;;;-3.02;74.45;99624.82;105639;1281;137960;-75
2022/03/14 04:00:40;;;;;;;60.20;29.20;;;;;;;-3.05;73.90;99629.31;105846;1281;24254;-74
2022/03/14 04:03:07;;;;;;;64.30;31.10;;;;;;;-3.06;73.95;99630.14;105627;1281;138450;-74
2022/03/14 04:05:49;;;;;;;63.00;31.90;;;;;;;-3.09;74.09;99630.71;105707;1282;25267;-74
2022/03/14 04:08:17;;;;;;;64.30;32.10;;;;;;;-3.12;73.78;99637.36;105779;1282;25418;-74
2022/03/14 04:10:43;;;;;;;56.20;30.70;;;;;;;-3.14;74.06;99640.77;105459;1282;138627;-74
2022/03/14 04:13:10;;;;;;;58.00;29.80;;;;;;;-3.16;74.57;99641.92;105429;1283;24263;-74
2022/03/14 04:15:50;;;;;;;60.70;29.30;;;;;;;-3.16;74.47;99646.44;105442;1283;138344;-74
2022/03/14 04:18:18;;;;;;;55.60;27.60;;;;;;;-3.18;74.59;99645.82;105542;1283;24396;-74
2022/03/14 04:20:48;;;;;;;57.80;28.90;;;;;;;-3.23;74.52;99647.17;105692;1283;22566;-74
2022/03/14 04:23:16;;;;;;;61.70;30.00;;;;;;;-3.29;74.49;99644.48;105634;1283;137661;-74
2022/03/14 04:25:44;;;;;;;53.70;28.20;;;;;;;-3.34;75.04;99647.52;105788;1281;25706;-74
2022/03/14 04:28:11;;;;;;;63.20;31.20;;;;;;;-3.38;75.29;99652.63;105558;1281;138640;-74
2022/03/14 04:30:38;;;;;;;52.40;28.70;;;;;;;-3.41;75.15;99651.70;105778;1281;23293;-74
2022/03/14 04:33:05;;;;;;;49.10;26.40;;;;;;;-3.42;75.46;99654.23;105489;1283;138675;-74
2022/03/14 04:35:32;;;;;;;58.50;27.30;;;;;;;-3.43;75.23;99657.32;105765;1281;22714;-74
2022/03/14 04:37:58;;;;;;;56.80;27.40;;;;;;;-3.40;75.81;99658.15;105696;1281;22556;-74
2022/03/14 04:40:24;;;;;;;53.70;27.50;;;;;;;-3.38;75.57;99656.94;105611;1281;137696;-75
2022/03/14 04:42:51;;;;;;;55.30;27.80;;;;;;;-3.39;75.70;99659.84;105925;1281;22575;-74
2022/03/14 04:45:17;;;;;;;57.60;27.50;;;;;;;-3.41;75.64;99660.16;105679;1281;137968;-74
2022/03/14 04:47:43;;;;;;;64.30;28.90;;;;;;;-3.42;75.90;99665.73;105831;1281;25538;-74
2022/03/14 04:50:10;;;;;;;58.70;31.10;;;;;;;-3.45;75.58;99668.30;105705;1281;22557;-74
2022/03/14 04:52:37;;;;;;;64.40;32.10;;;;;;;-3.49;75.81;99666.52;105560;1281;137992;-74
2022/03/14 04:55:04;;;;;;;61.70;32.40;;;;;;;-3.51;75.65;99667.73;105580;1281;22605;-74
2022/03/14 04:57:30;;;;;;;58.70;28.90;;;;;;;-3.50;75.85;99669.78;105572;1281;138745;-74
2022/03/14 04:59:57;;;;;;;62.50;27.20;;;;;;;-3.49;75.80;99672.39;105752;1281;24347;-74
2022/03/14 05:02:23;;;;;;;54.80;26.60;;;;;;;-3.51;75.69;99674.34;105663;1281;23943;-74
2022/03/14 05:04:51;;;;;;;64.40;28.40;;;;;;;-3.52;75.85;99672.42;105613;1281;138409;-74
2022/03/14 05:07:17;;;;;;;58.80;27.50;;;;;;;-3.52;76.06;99677.02;105701;1281;24308;-74
2022/03/14 05:09:44;;;;;;;54.90;27.50;;;;;;;-3.52;76.14;99674.24;105680;1281;138212;-74
2022/03/14 05:12:11;;;;;;;58.30;27.40;;;;;;;-3.53;75.76;99681.05;105628;1281;22592;-74
2022/03/14 05:14:39;;;;;;;60.30;27.60;;;;;;;-3.54;76.44;99680.27;105724;1281;22571;-74
2022/03/14 05:17:06;;;;;;;66.20;30.30;;;;;;;-3.56;76.22;99684.86;105679;1281;137985;-74
2022/03/14 05:19:34;;;;;;;57.80;28.40;;;;;;;-3.56;76.43;99681.68;105716;1281;22576;-74
2022/03/14 05:22:01;;;;;;;55.50;28.20;;;;;;;-3.52;76.59;99682.73;105613;1281;138803;-74
2022/03/14 05:24:28;;;;;;;51.70;26.40;;;;;;;-3.46;76.76;99684.52;105770;1281;24241;-74
2022/03/14 05:26:57;;;;;;;60.30;28.70;;;;;;;-3.41;76.64;99689.98;105767;1281;22585;-74
2022/03/14 05:29:24;;;;;;;;;;;;;;;-3.36;76.70;99692.62;105687;1281;137462;-74
2022/03/14 05:31:50;;;;;;;50.30;25.30;;;;;;;-3.34;76.56;99694.75;106015;1281;25275;-74
2022/03/14 05:34:16;;;;;;;63.50;27.70;;;;;;;-3.33;76.31;99700.30;105681;1281;137909;-74
2022/03/14 05:36:43;;;;;;;54.90;26.40;;;;;;;-3.31;76.62;99698.24;105993;1281;25446;-74
2022/03/14 05:39:09;;;;;;;60.00;27.60;;;;;;;-3.29;76.83;99698.59;105635;1281;138608;-74
2022/03/14 05:41:36;;;;;;;54.20;27.60;;;;;;;-3.27;76.29;99699.52;105507;1281;22620;-76
2022/03/14 05:44:02;;;;;;;51.80;26.40;;;;;;;-3.23;76.57;99699.38;105652;1281;22638;-76
2022/03/14 05:46:33;;;;;;;62.30;28.70;;;;;;;-3.17;76.20;99698.85;105853;1281;138257;-76
2022/03/14 05:48:59;;;;;;;53.20;25.10;;;;;;;-3.13;76.30;99699.23;105248;1281;22587;-74
2022/03/14 05:51:25;;;;;;;54.20;24.80;;;;;;;-3.09;76.19;99694.15;105493;1281;138016;-74
2022/03/14 05:53:52;;;;;;;52.40;26.50;;;;;;;-3.05;76.28;99693.94;105919;1281;22607;-74
2022/03/14 05:56:18;;;;;;;51.70;25.40;;;;;;;-3.02;76.40;99689.48;106031;1281;25289;-74
2022/03/14 05:58:45;;;;;;;54.10;26.20;;;;;;;-3.00;75.72;99690.89;105801;1281;138359;-75
2022/03/14 06:01:11;;;;;;;51.60;25.30;;;;;;;-2.98;76.11;99689.28;105782;1281;25365;-74
2022/03/14 06:03:53;;;;;;;60.70;30.70;;;;;;;-2.94;76.01;99691.61;105703;1283;137848;-75
2022/03/14 06:06:19;;;;;;;61.70;28.40;;;;;;;-2.89;76.37;99691.20;105780;1282;25310;-74
2022/03/14 06:08:45;;;;;;;54.70;28.20;;;;;;;-2.84;75.93;99691.16;105842;1283;25500;-74
2022/03/14 06:11:12;;;;;;;60.60;28.20;;;;;;;-2.78;76.30;99695.28;105955;1283;138545;-75
2022/03/14 06:13:39;;;;;;;57.10;28.80;;;;;;;-2.72;76.53;99698.54;105680;1282;25264;-75
2022/03/14 06:16:06;;;;;;;51.60;27.60;;;;;;;-2.65;76.25;99701.64;105551;1283;137741;-74
2022/03/14 06:18:32;;;;;;;56.30;29.40;;;;;;;-2.58;75.81;99708.57;105666;1283;24328;-74
2022/03/14 06:20:59;;;;;;;56.30;27.90;;;;;;;-2.52;75.42;99706.27;105647;1283;22580;-74
2022/03/14 06:23:25;;;;;;;59.40;27.60;;;;;;;-2.49;75.71;99703.65;105627;1283;137498;-74
2022/03/14 06:25:54;;;;;;;58.60;28.60;;;;;;;-2.44;75.52;99710.02;105510;1283;22713;-74
2022/03/14 06:28:22;;;;;;;55.20;30.50;;;;;;;-2.40;75.33;99709.70;105464;1283;137873;-74
2022/03/14 06:30:50;;;;;;;;;;;;;;;-2.33;75.38;99712.61;105710;1282;22845;-75
2022/03/14 06:33:16;;;;;;;56.80;27.90;;;;;;;-2.26;75.49;99711.76;105605;1281;124796;-74
2022/03/14 06:35:45;;;;;;;56.00;26.30;;;;;;;-2.20;75.17;99712.27;105766;1281;22557;-74
2022/03/14 06:38:11;;;;;;;55.50;26.20;;;;;;;-2.14;75.63;99713.51;105754;1281;22676;-74
2022/03/14 06:40:41;;;;;;;51.90;25.60;;;;;;;-2.07;75.33;99712.23;105677;1281;138252;-74
2022/03/14 06:43:10;;;;;;;50.80;25.70;;;;;;;-2.01;75.32;99712.55;105920;1281;23079;-76
2022/03/14 06:45:39;;;;;;;55.30;27.90;;;;;;;-1.93;75.23;99716.64;105611;1283;138048;-75
2022/03/14 06:48:06;;;;;;;52.40;26.60;;;;;;;-1.85;74.81;99723.11;106039;1281;22567;-76
2022/03/14 06:50:37;;;;;;;49.30;24.80;;;;;;;-1.79;74.80;99716.54;106047;1280;24482;-76
2022/03/14 06:53:04;;;;;;;50.40;25.10;;;;;;;-1.72;74.75;99716.47;105702;1280;139399;-74
2022/03/14 06:55:31;;;;;;;57.60;26.10;;;;;;;-1.67;74.59;99719.23;106007;1281;24329;-74
2022/03/14 06:57:57;;;;;;;54.50;26.80;;;;;;;-1.63;74.35;99718.55;105825;1280;138243;-74
2022/03/14 07:00:26;;;;;;;55.10;29.40;;;;;;;-1.59;74.14;99719.98;106054;1283;25391;-74
2022/03/14 07:03:09;;;;;;;57.70;28.50;;;;;;;-1.53;73.94;99720.80;105600;1283;139153;-74
2022/03/14 07:05:35;;;;;;;62.20;29.40;;;;;;;-1.45;73.93;99722.61;105926;1280;22798;-74
2022/03/14 07:08:02;;;;;;;52.20;27.60;;;;;;;-1.35;73.87;99724.58;105692;1280;23955;-74
2022/03/14 07:10:30;;;;;;;62.80;28.10;;;;;;;-1.26;73.65;99726.30;105701;1280;137710;-74
2022/03/14 07:12:57;;;;;;;59.80;29.50;;;;;;;-1.17;73.38;99731.87;106154;1279;22678;-74
2022/03/14 07:15:25;;;;;;;56.10;27.80;;;;;;;-1.09;73.29;99735.08;105674;1280;138007;-74
2022/03/14 07:17:52;;;;;;;54.00;28.10;;;;;;;-1.00;73.22;99736.94;105907;1280;22571;-74
2022/03/14 07:20:19;;;;;;;57.20;30.60;;;;;;;-0.94;72.84;99739.98;105739;1280;25383;-74
2022/03/14 07:22:57;;;;;;;59.90;30.20;;;;;;;-0.87;72.68;99735.91;105863;1280;137746;-74
2022/03/14 07:25:26;;;;;;;55.30;28.40;;;;;;;-0.80;72.90;99737.44;105922;1280;23174;-74
2022/03/14 07:27:55;;;;;;;53.10;25.90;;;;;;;-0.73;72.68;99742.55;105731;1281;137923;-76
2022/03/14 07:30:22;;;;;;;56.30;29.70;;;;;;;-0.65;72.79;99740.05;105844;1280;22567;-75
2022/03/14 07:32:49;;;;;;;56.30;30.50;;;;;;;-0.59;72.41;99737.84;106131;1280;22603;-75
2022/03/14 07:35:16;;;;;;;58.70;30.10;;;;;;;-0.51;72.21;99740.17;105715;1280;137853;-75
2022/03/14 07:37:42;;;;;;;57.10;31.40;;;;;;;-0.45;71.99;99739.54;105903;1280;25261;-74
2022/03/14 07:40:10;;;;;;;63.80;34.60;;;;;;;-0.36;71.92;99737.69;105688;1280;137793;-74
2022/03/14 07:42:43;;;;;;;57.30;31.00;;;;;;;-0.27;71.34;99738.27;106024;1280;22678;-74
2022/03/14 07:45:11;;;;;;;58.20;32.00;;;;;;;-0.15;71.16;99737.70;105887;1280;138628;-74
2022/03/14 07:47:39;;;;;;;56.60;30.80;;;;;;;-0.03;71.41;99741.04;106290;1280;22632;-74
2022/03/14 07:50:15;;;;;;;53.50;29.60;;;;;;;0.10;70.68;99740.71;105829;1280;24208;-75
2022/03/14 07:52:45;;;;;;;60.30;29.70;;;;;;;0.21;70.50;99744.46;105937;1280;137914;-74
2022/03/14 07:55:13;;;;;;;58.50;29.70;;;;;;;0.32;70.28;99751.30;106136;1280;22551;-75
2022/03/14 07:57:41;;;;;;;52.70;28.90;;;;;;;0.40;70.12;99753.34;106114;1280;141098;-75
2022/03/14 08:00:13;;;;;;;48.00;26.00;;;;;;;0.51;69.94;99752.32;105852;1280;24440;-75
2022/03/14 08:02:43;;;;;;;52.40;29.30;;;;;;;0.61;69.60;99749.80;106314;1280;22800;-75
2022/03/14 08:05:13;;;;;;;48.60;26.10;;;;;;;0.71;69.66;99746.64;106304;1280;138208;-75
2022/03/14 08:07:41;;;;;;;56.30;27.90;;;;;;;0.82;69.43;99747.36;106708;1281;25316;-75
2022/03/14 08:10:09;;;;;;;48.60;24.60;;;;;;;0.92;69.00;99751.16;106098;1280;137953;-75
2022/03/14 08:12:49;;;;;;;48.50;27.20;;;;;;;1.03;68.74;99750.67;106429;1280;26642;-75
2022/03/14 08:15:34;;;;;;;;;;;;;;;1.14;68.21;99749.70;106012;1280;137816;-75
2022/03/14 08:18:03;;;;;;;48.20;23.10;;;;;;;1.26;67.70;99753.93;105866;1281;22556;-76
2022/03/14 08:20:30;;;;;;;45.40;21.70;;;;;;;1.36;67.07;99752.34;106087;1280;22573;-76
2022/03/14 08:22:59;;;;;;;46.20;24.30;;;;;;;1.47;66.93;99746.44;106281;1280;138130;-74
2022/03/14 08:25:28;;;;;;;52.50;25.70;;;;;;;1.60;66.68;99748.23;106374;1280;22696;-74
2022/03/14 08:27:55;;;;;;;47.50;25.60;;;;;;;1.70;66.28;99749.52;106150;1280;137977;-73
2022/03/14 08:30:23;;;;;;;51.90;26.20;;;;;;;1.81;65.97;99752.85;105827;1280;22558;-73
2022/03/14 08:32:51;;;;;;;49.60;26.00;;;;;;;1.92;65.74;99754.41;106145;1280;22559;-73
2022/03/14 08:35:20;;;;;;;50.60;25.80;;;;;;;2.04;65.36;99750.48;105997;1280;138004;-74
2022/03/14 08:37:50;;;;;;;47.30;24.20;;;;;;;2.17;64.91;99746.38;106377;1280;22710;-74
2022/03/14 08:40:18;;;;;;;;;;;;;;;2.31;64.10;99746.28;106036;1280;138015;-74
2022/03/14 08:42:45;;;;;;;40.50;20.80;;;;;;;2.44;63.19;99743.35;106192;1283;22598;-74
2022/03/14 08:45:13;;;;;;;41.20;22.20;;;;;;;2.56;62.82;99742.66;105791;1281;137834;-74
2022/03/14 08:47:40;;;;;;;41.00;22.90;;;;;;;2.70;62.21;99740.23;106066;1280;22684;-74
2022/03/14 08:50:08;;;;;;;46.00;22.20;;;;;;;2.85;61.54;99742.95;105744;1280;25353;-75
2022/03/14 08:52:36;;;;;;;41.40;21.20;;;;;;;3.01;60.88;99744.71;105676;1283;137659;-74
2022/03/14 08:55:03;;;;;;;41.70;22.00;;;;;;;3.15;60.27;99743.91;105741;1281;23039;-75
2022/03/14 08:57:29;;;;;;;38.40;21.00;;;;;;;3.28;58.93;99741.93;106167;1280;138038;-75
2022/03/14 08:59:56;;;;;;;41.00;21.10;;;;;;;3.41;58.69;99739.84;106024;1280;24312;-75
2022/03/14 09:02:22;;;;;;;41.80;22.80;;;;;;;3.54;58.42;99735.92;106394;1280;24225;-76
2022/03/14 09:04:48;;;;;;;37.10;20.90;;;;;;;3.68;57.92;99738.39;105911;1280;137551;-75
2022/03/14 09:07:28;;;;;;;39.70;20.90;;;;;;;3.81;57.03;99742.30;105956;1280;26625;-76
2022/03/14 09:10:01;;;;;;;43.90;22.00;;;;;;;3.96;56.37;99747.30;105975;1280;137589;-76
2022/03/14 09:12:27;;;;;;;41.60;21.40;;;;;;;4.09;56.06;99747.14;106380;1280;23074;-76
2022/03/14 09:14:53;;;;;;;38.80;21.70;;;;;;;4.22;55.76;99746.38;105032;1280;856233;-74
2022/03/14 09:17:20;;;;;;;40.10;20.20;;;;;;;4.37;55.24;99745.83;105747;1280;137875;-75
2022/03/14 09:19:46;;;;;;;32.80;18.60;;;;;;;4.51;54.78;99749.09;105840;1280;26497;-75
2022/03/14 09:22:12;;;;;;;34.50;18.50;;;;;;;4.67;54.34;99752.50;105310;1280;137693;-76
2022/03/14 09:24:39;;;;;;;37.50;19.20;;;;;;;4.84;53.29;99750.77;105595;1281;22560;-77
2022/03/14 09:27:06;;;;;;;33.50;19.40;;;;;;;4.99;52.57;99746.86;105657;1281;138382;-77
2022/03/14 09:29:33;;;;;;;37.60;19.30;;;;;;;5.13;52.31;99744.98;105959;1280;24299;-75
2022/03/14 09:31:59;;;;;;;45.40;22.40;;;;;;;5.29;51.78;99744.79;106019;1280;22551;-75
2022/03/14 09:34:26;;;;;;;35.20;19.80;;;;;;;5.44;51.73;99741.98;105645;1280;138125;-78
2022/03/14 09:36:55;;;;;;;42.10;21.10;;;;;;;5.60;51.09;99736.86;105779;1280;22694;-76
2022/03/14 09:39:22;;;;;;;37.70;18.40;;;;;;;5.75;50.29;99738.87;105772;1280;137725;-77
2022/03/14 09:41:53;;;;;;;39.10;18.70;;;;;;;5.90;49.88;99737.14;105915;1280;25318;-78
2022/03/14 09:44:21;;;;;;;39.30;20.60;;;;;;;6.07;49.75;99740.37;106729;1280;22799;-79
2022/03/14 09:46:49;;;;;;;36.90;18.80;;;;;;;6.21;49.18;99736.59;106828;1280;140258;-78
2022/03/14 09:49:19;;;;;;;31.70;19.20;;;;;;;6.37;48.72;99733.66;106190;1280;24301;-78
2022/03/14 09:51:45;;;;;;;;;;;;;;;6.51;47.88;99732.83;106105;1280;138510;-79
2022/03/14 09:54:12;;;;;;;26.80;14.90;;;;;;;6.63;46.57;99729.48;105992;1280;24231;-80
2022/03/14 09:56:42;;;;;;;26.10;14.50;;;;;;;6.75;46.17;99730.27;106084;1280;22653;-79
2022/03/14 09:59:14;;;;;;;27.20;14.80;;;;;;;6.89;45.38;99730.10;106019;1280;137694;-80
2022/03/14 10:01:42;;;;;;;21.60;12.60;;;;;;;7.00;44.03;99734.95;106057;1280;22638;-80
2022/03/14 10:04:09;;;;;;;26.90;15.20;;;;;;;7.11;43.31;99729.79;105944;1280;137832;-80
2022/03/14 10:06:39;;;;;;;29.00;16.10;;;;;;;7.23;43.86;99729.45;106033;1281;22604;-80
2022/03/14 10:09:06;;;;;;;29.00;14.60;;;;;;;7.39;43.66;99727.11;105945;1280;137820;-80
2022/03/14 10:11:34;;;;;;;29.30;15.00;;;;;;;7.53;43.19;99726.45;106178;1280;24281;-79
2022/03/14 10:14:00;;;;;;;26.00;13.90;;;;;;;7.68;42.73;99725.02;106092;1280;22566;-79
2022/03/14 10:16:26;;;;;;;26.60;14.80;;;;;;;7.82;42.80;99719.42;106301;1280;137659;-79
2022/03/14 10:18:55;;;;;;;29.00;15.80;;;;;;;7.99;42.89;99720.42;105731;1280;25506;-78
2022/03/14 10:21:44;;;;;;;30.90;16.30;;;;;;;8.15;42.22;99720.89;105562;1280;137694;-78
2022/03/14 10:24:13;;;;;;;29.90;11.50;;;;;;;8.30;41.07;99713.26;105742;1280;22691;-77
2022/03/14 10:26:43;;;;;;;20.20;10.40;;;;;;;8.40;39.13;99715.70;105619;1280;23017;-77
2022/03/14 10:29:12;;;;;;;23.50;12.00;;;;;;;8.50;38.98;99714.08;105570;1280;138123;-77
2022/03/14 10:31:38;;;;;;;;;;;;;;;8.62;38.64;99714.88;105763;1280;24257;-76
2022/03/14 10:34:09;;;;;;;23.30;13.30;;;;;;;8.73;38.48;99718.79;105380;1280;123721;-77
2022/03/14 10:36:49;;;;;;;22.10;12.40;;;;;;;8.86;38.31;99721.30;105757;1280;22634;-76
2022/03/14 10:39:21;;;;;;;29.20;16.20;;;;;;;8.95;38.21;99722.55;105582;1280;138003;-76
2022/03/14 10:42:07;;;;;;;29.40;15.10;;;;;;;9.04;38.58;99723.20;105809;1280;25348;-76
2022/03/14 10:44:35;;;;;;;25.40;14.00;;;;;;;9.15;38.39;99718.90;105755;1280;25385;-76
2022/03/14 10:47:06;;;;;;;31.30;17.20;;;;;;;9.26;38.15;99712.57;105850;1280;138228;-75
2022/03/14 10:49:34;;;;;;;28.60;16.40;;;;;;;9.34;38.70;99712.89;105942;1280;22546;-76
2022/03/14 10:52:06;;;;;;;28.50;16.20;;;;;;;9.43;38.85;99714.61;105737;1280;137691;-76
2022/03/14 10:54:37;;;;;;;33.80;17.00;;;;;;;9.56;38.88;99709.82;105858;1279;24447;-75
2022/03/14 10:57:04;;;;;;;37.50;18.60;;;;;;;9.67;38.47;99707.95;105849;1280;138113;-75
2022/03/14 10:59:34;;;;;;;33.10;17.50;;;;;;;9.77;38.52;99705.91;105885;1280;24359;-75
2022/03/14 11:02:02;;;;;;;28.90;16.00;;;;;;;9.87;38.60;99701.09;105914;1280;22559;-76
2022/03/14 11:04:51;;;;;;;35.00;18.40;;;;;;;9.98;38.65;99696.47;105847;1280;138415;-76
2022/03/14 11:07:20;;;;;;;27.40;16.50;;;;;;;10.10;37.82;99694.09;105944;1279;23475;-76
2022/03/14 11:09:49;;;;;;;32.10;17.10;;;;;;;10.21;37.87;99688.25;105799;1281;138820;-75
2022/03/14 11:12:21;;;;;;;34.10;17.60;;;;;;;10.35;37.81;99683.42;105934;1281;25335;-75
2022/03/14 11:15:03;;;;;;;35.50;18.00;;;;;;;10.47;37.34;99686.83;105831;1281;23471;-75